createdAt,value
2024-02-19T00:05:47.728Z,10.20
2024-02-19T00:17:47.869Z,10.19
2024-02-19T00:29:47.624Z,10.19
2024-02-19T00:41:47.732Z,10.18
2024-02-19T00:53:47.729Z,10.18
2024-02-19T01:05:47.727Z,10.18
2024-02-19T01:17:47.652Z,10.18
2024-02-19T01:29:47.634Z,10.17
2024-02-19T01:41:47.623Z,10.16
2024-02-19T01:53:47.781Z,10.16
2024-02-19T02:05:47.720Z,10.16
2024-02-19T02:17:47.773Z,10.16
2024-02-19T02:29:47.747Z,10.16
2024-02-19T02:41:47.769Z,10.15
2024-02-19T02:53:47.722Z,10.15
2024-02-19T03:05:47.663Z,10.14
2024-02-19T03:17:47.781Z,10.14
2024-02-19T03:29:47.621Z,10.14
2024-02-19T03:41:47.633Z,10.14
2024-02-19T03:53:47.649Z,10.13
2024-02-19T04:05:47.746Z,10.13
2024-02-19T04:17:47.725Z,10.12
2024-02-19T04:29:47.736Z,10.12
2024-02-19T04:41:47.654Z,10.12
2024-02-19T04:53:47.645Z,10.12
2024-02-19T05:05:47.779Z,10.11
2024-02-19T05:17:47.666Z,10.11
2024-02-19T05:29:47.754Z,10.10
2024-02-19T05:41:47.734Z,10.10
2024-02-19T05:53:47.663Z,10.10
2024-02-19T06:05:47.644Z,10.10
2024-02-19T06:17:47.682Z,10.09
2024-02-19T06:29:47.653Z,10.09
2024-02-19T06:41:47.643Z,10.08
2024-02-19T06:53:47.650Z,10.08
2024-02-19T07:05:47.693Z,10.08
2024-02-19T07:17:47.723Z,10.08
2024-02-19T07:29:48.832Z,10.07
2024-02-19T07:41:47.624Z,10.07
2024-02-19T07:53:47.735Z,10.06
2024-02-19T08:05:47.736Z,10.06
2024-02-19T08:17:47.764Z,10.06
2024-02-19T08:29:47.702Z,10.06
2024-02-19T08:41:47.638Z,10.06
2024-02-19T08:53:51.322Z,10.05
2024-02-19T09:05:47.724Z,10.05
2024-02-19T09:17:47.671Z,10.05
2024-02-19T09:29:47.653Z,10.07
2024-02-19T09:41:47.628Z,10.06
2024-02-19T09:53:47.623Z,10.13
2024-02-19T10:05:49.051Z,10.16
2024-02-19T10:17:47.674Z,10.23
2024-02-19T10:29:47.630Z,10.33
2024-02-19T10:41:47.707Z,10.38
2024-02-19T10:53:47.640Z,10.42
2024-02-19T11:05:47.900Z,10.55
2024-02-19T11:17:47.750Z,10.61
2024-02-19T11:29:48.611Z,10.60
2024-02-19T11:41:47.714Z,10.60
2024-02-19T11:53:47.723Z,10.59
2024-02-19T12:05:47.758Z,10.63
2024-02-19T12:17:47.648Z,10.65
2024-02-19T12:29:48.200Z,10.62
2024-02-19T12:41:47.750Z,10.60
2024-02-19T12:53:47.700Z,10.59
2024-02-19T13:05:47.793Z,10.58
2024-02-19T13:17:47.839Z,10.60
2024-02-19T13:29:48.959Z,10.57
2024-02-19T13:41:47.780Z,10.56
2024-02-19T13:53:47.648Z,10.56
2024-02-19T14:05:47.820Z,10.54
2024-02-19T14:17:47.751Z,10.52
2024-02-19T14:29:47.716Z,10.52
2024-02-19T14:41:47.693Z,10.51
2024-02-19T14:53:47.641Z,10.50
2024-02-19T15:05:47.735Z,10.50
2024-02-19T15:17:47.767Z,10.50
2024-02-19T15:29:47.643Z,10.48
2024-02-19T15:41:47.727Z,10.46
2024-02-19T15:53:47.673Z,10.46
2024-02-19T16:05:47.743Z,10.45
2024-02-19T16:17:47.746Z,10.44
2024-02-19T16:29:47.631Z,10.44
2024-02-19T16:41:47.641Z,10.42
2024-02-19T16:53:47.751Z,10.42
2024-02-19T17:05:47.968Z,10.40
2024-02-19T17:17:47.680Z,10.39
2024-02-19T17:29:47.686Z,10.39
2024-02-19T17:41:47.726Z,10.39
2024-02-19T17:53:47.752Z,10.37
2024-02-19T18:05:47.765Z,10.38
2024-02-19T18:17:47.730Z,10.37
2024-02-19T18:29:47.761Z,10.36
2024-02-19T18:41:47.624Z,10.36
2024-02-19T18:53:47.712Z,10.35
2024-02-19T19:05:47.753Z,10.35
2024-02-19T19:17:47.812Z,10.34
2024-02-19T19:29:47.645Z,10.34
2024-02-19T19:41:47.741Z,10.34
2024-02-19T19:53:47.705Z,10.33
2024-02-19T20:05:47.830Z,10.32
2024-02-19T20:17:47.844Z,10.32
2024-02-19T20:29:47.706Z,10.32
2024-02-19T20:41:47.623Z,10.32
2024-02-19T20:53:47.764Z,10.31
2024-02-19T21:05:47.666Z,10.30
2024-02-19T21:17:47.653Z,10.30
2024-02-19T21:29:47.625Z,10.30
2024-02-19T21:41:47.632Z,10.30
2024-02-19T21:53:47.659Z,10.29
2024-02-19T22:05:47.682Z,10.29
2024-02-19T22:17:47.690Z,10.28
2024-02-19T22:29:47.632Z,10.28
2024-02-19T22:41:47.654Z,10.28
2024-02-19T22:53:47.652Z,10.28
2024-02-19T23:05:47.693Z,10.28
2024-02-19T23:17:47.670Z,10.27
2024-02-19T23:29:47.674Z,10.27
2024-02-19T23:41:47.675Z,10.27
2024-02-19T23:53:47.685Z,10.26
